Time,TemperatureF,DewpointF,PressureIn,WindDirection,WindDirectionDegrees,WindSpeedMPH,WindSpeedGustMPH,Humidity,HourlyPrecipIn,Conditions,Clouds,dailyrainin,SoftwareType,DateUTC
2013-01-17 00:12:00,29.0,26.0,28.64,NNE,13,0.0,1.0,87,0.00,,,0.00,,2013-01-17 05:12:00,
2013-01-17 00:22:00,29.0,26.0,28.64,NNE,12,0.0,1.0,87,0.00,,,0.00,,2013-01-17 05:22:00,
2013-01-17 00:32:00,29.0,26.0,28.64,NW,321,0.0,3.0,87,0.00,,,0.00,,2013-01-17 05:32:00,
2013-01-17 00:42:00,29.0,26.0,28.64,NW,321,0.0,3.0,87,0.00,,,0.00,,2013-01-17 05:42:00,
2013-01-17 00:52:00,29.0,26.0,28.64,NW,321,0.0,3.0,87,0.00,,,0.00,,2013-01-17 05:52:00,
2013-01-17 01:02:00,29.0,26.0,28.63,WNW,301,1.0,3.0,87,0.00,,,0.00,,2013-01-17 06:02:00,
2013-01-17 01:11:00,29.0,26.0,28.63,WNW,301,1.0,3.0,87,0.00,,,0.00,,2013-01-17 06:11:00,
2013-01-17 01:22:00,29.0,25.0,28.63,NW,309,3.0,7.0,86,0.00,,,0.00,,2013-01-17 06:22:00,
2013-01-17 01:32:00,29.0,25.0,28.63,NW,322,2.0,5.0,86,0.00,,,0.00,,2013-01-17 06:32:00,
2013-01-17 01:42:00,29.0,25.0,28.63,NW,322,2.0,5.0,86,0.00,,,0.00,,2013-01-17 06:42:00,
2013-01-17 01:52:00,29.0,25.0,28.64,NNE,29,0.0,2.0,86,0.00,,,0.00,,2013-01-17 06:52:00,
2013-01-17 02:02:00,29.0,25.0,28.64,East,84,1.0,7.0,85,0.00,,,0.00,,2013-01-17 07:02:00,
2013-01-17 02:11:00,29.0,25.0,28.64,East,84,1.0,7.0,85,0.00,,,0.00,,2013-01-17 07:11:00,
2013-01-17 02:22:00,29.0,25.0,28.64,WNW,300,0.0,5.0,85,0.00,,,0.00,,2013-01-17 07:22:00,
2013-01-17 02:32:00,29.0,25.0,28.64,NE,51,3.0,6.0,86,0.00,,,0.00,,2013-01-17 07:32:00,
2013-01-17 02:42:00,29.0,25.0,28.64,NE,51,3.0,6.0,86,0.00,,,0.00,,2013-01-17 07:42:00,
2013-01-17 02:52:00,29.0,25.0,28.64,NW,321,2.0,4.0,86,0.00,,,0.00,,2013-01-17 07:52:00,
2013-01-17 03:02:00,29.0,25.0,28.64,NW,324,0.0,3.0,86,0.00,,,0.00,,2013-01-17 08:02:00,
2013-01-17 03:11:00,29.0,25.0,28.64,NW,324,0.0,3.0,86,0.00,,,0.00,,2013-01-17 08:11:00,
2013-01-17 03:22:00,29.0,25.0,28.64,NW,326,2.0,4.0,85,0.00,,,0.00,,2013-01-17 08:22:00,
2013-01-17 03:32:00,29.0,25.0,28.64,NNW,335,2.0,6.0,85,0.00,,,0.00,,2013-01-17 08:32:00,
2013-01-17 03:43:00,29.0,25.0,28.64,NNW,335,2.0,6.0,85,0.00,,,0.00,,2013-01-17 08:43:00,
2013-01-17 03:52:00,29.0,25.0,28.64,North,356,2.0,4.0,85,0.00,,,0.00,,2013-01-17 08:52:00,
2013-01-17 04:02:00,28.0,24.0,28.64,NNW,327,1.0,4.0,86,0.00,,,0.00,,2013-01-17 09:02:00,
2013-01-17 04:12:00,28.0,24.0,28.64,NNW,327,1.0,4.0,86,0.00,,,0.00,,2013-01-17 09:12:00,
2013-01-17 04:22:00,28.0,25.0,28.64,NW,321,1.0,5.0,87,0.00,,,0.00,,2013-01-17 09:22:00,
2013-01-17 04:32:00,28.0,25.0,28.65,NW,325,1.0,3.0,87,0.00,,,0.00,,2013-01-17 09:32:00,
2013-01-17 04:42:00,28.0,25.0,28.65,NW,325,1.0,3.0,87,0.00,,,0.00,,2013-01-17 09:42:00,
2013-01-17 04:52:00,28.0,25.0,28.65,WNW,282,0.0,1.0,87,0.00,,,0.00,,2013-01-17 09:52:00,
2013-01-17 05:02:00,28.0,24.0,28.64,NNW,329,0.0,1.0,86,0.00,,,0.00,,2013-01-17 10:02:00,
2013-01-17 05:11:00,28.0,24.0,28.64,NNW,329,0.0,1.0,86,0.00,,,0.00,,2013-01-17 10:11:00,
2013-01-17 05:22:00,28.0,25.0,28.64,NNW,338,0.0,2.0,87,0.00,,,0.00,,2013-01-17 10:22:00,
2013-01-17 05:32:00,28.0,25.0,28.64,WNW,301,3.0,6.0,87,0.00,,,0.00,,2013-01-17 10:32:00,
2013-01-17 05:42:00,28.0,25.0,28.64,WNW,301,3.0,6.0,87,0.00,,,0.00,,2013-01-17 10:42:00,
2013-01-17 05:52:00,28.0,25.0,28.64,NW,304,3.0,7.0,87,0.00,,,0.00,,2013-01-17 10:52:00,
2013-01-17 06:02:00,28.0,25.0,28.64,NW,310,2.0,4.0,87,0.00,,,0.00,,2013-01-17 11:02:00,
2013-01-17 06:11:00,28.0,25.0,28.64,NW,310,2.0,4.0,87,0.00,,,0.00,,2013-01-17 11:11:00,
2013-01-17 06:22:00,28.0,25.0,28.64,West,266,2.0,4.0,87,0.00,,,0.00,,2013-01-17 11:22:00,
2013-01-17 06:32:00,28.0,25.0,28.63,NW,314,1.0,4.0,88,0.00,,,0.00,,2013-01-17 11:32:00,
2013-01-17 06:42:00,28.0,25.0,28.63,NW,314,1.0,4.0,88,0.00,,,0.00,,2013-01-17 11:42:00,
2013-01-17 06:52:00,28.0,25.0,28.63,WNW,302,2.0,5.0,88,0.00,,,0.00,,2013-01-17 11:52:00,
2013-01-17 07:02:00,28.0,25.0,28.62,West,274,2.0,6.0,88,0.00,,,0.00,,2013-01-17 12:02:00,
2013-01-17 07:12:00,28.0,25.0,28.62,West,274,2.0,6.0,88,0.00,,,0.00,,2013-01-17 12:12:00,
2013-01-17 07:22:00,28.0,25.0,28.62,WNW,300,1.0,3.0,88,0.00,,,0.00,,2013-01-17 12:22:00,
2013-01-17 07:32:00,28.0,25.0,28.61,West,276,0.0,4.0,87,0.00,,,0.00,,2013-01-17 12:32:00,
2013-01-17 07:42:00,28.0,25.0,28.61,West,276,0.0,4.0,87,0.00,,,0.00,,2013-01-17 12:42:00,
2013-01-17 07:52:00,27.0,24.0,28.61,NW,307,2.0,4.0,88,0.00,,,0.00,,2013-01-17 12:52:00,
2013-01-17 08:02:00,27.0,24.0,28.61,West,266,2.0,3.0,88,0.00,,,0.00,,2013-01-17 13:02:00,
2013-01-17 08:12:00,27.0,24.0,28.61,West,266,2.0,3.0,88,0.00,,,0.00,,2013-01-17 13:12:00,
2013-01-17 08:22:00,27.0,24.0,28.61,WNW,284,1.0,4.0,88,0.00,,,0.00,,2013-01-17 13:22:00,
2013-01-17 08:33:00,27.0,24.0,28.61,WSW,250,0.0,1.0,88,0.00,,,0.00,,2013-01-17 13:33:00,
2013-01-17 08:42:00,27.0,24.0,28.61,WSW,250,0.0,1.0,88,0.00,,,0.00,,2013-01-17 13:42:00,
2013-01-17 08:52:00,27.0,24.0,28.60,West,281,1.0,3.0,88,0.00,,,0.00,,2013-01-17 13:52:00,
2013-01-17 09:03:00,27.0,24.0,28.60,WNW,293,0.0,1.0,88,0.00,,,0.00,,2013-01-17 14:03:00,
2013-01-17 09:12:00,27.0,24.0,28.60,WNW,293,0.0,1.0,88,0.00,,,0.00,,2013-01-17 14:12:00,
2013-01-17 09:23:00,27.0,24.0,28.60,East,84,0.0,1.0,87,0.00,,,0.00,,2013-01-17 14:23:00,
2013-01-17 09:33:00,27.0,24.0,28.61,East,79,0.0,1.0,87,0.00,,,0.00,,2013-01-17 14:33:00,
2013-01-17 09:42:00,27.0,24.0,28.61,East,79,0.0,1.0,87,0.00,,,0.00,,2013-01-17 14:42:00,
2013-01-17 09:52:00,27.0,24.0,28.60,NW,321,0.0,2.0,87,0.00,,,0.00,,2013-01-17 14:52:00,
2013-01-17 10:03:00,27.0,24.0,28.61,North,359,0.0,2.0,87,0.00,,,0.00,,2013-01-17 15:03:00,
2013-01-17 10:12:00,27.0,24.0,28.61,North,359,0.0,2.0,87,0.00,,,0.00,,2013-01-17 15:12:00,
2013-01-17 10:22:00,27.0,24.0,28.61,NW,318,0.0,2.0,87,0.00,,,0.00,,2013-01-17 15:22:00,
2013-01-17 10:33:00,27.0,24.0,28.61,NE,41,1.0,4.0,87,0.00,,,0.00,,2013-01-17 15:33:00,
2013-01-17 10:43:00,27.0,24.0,28.61,NE,41,1.0,4.0,87,0.00,,,0.00,,2013-01-17 15:43:00,
2013-01-17 10:52:00,27.0,23.0,28.61,West,276,0.0,3.0,86,0.00,,,0.00,,2013-01-17 15:52:00,
2013-01-17 11:02:00,27.0,23.0,28.61,NW,307,1.0,2.0,86,0.00,,,0.00,,2013-01-17 16:02:00,
2013-01-17 11:12:00,27.0,23.0,28.61,NW,307,1.0,2.0,86,0.00,,,0.00,,2013-01-17 16:12:00,
2013-01-17 11:22:00,27.0,23.0,28.61,NW,307,1.0,2.0,86,0.00,,,0.00,,2013-01-17 16:22:00,
2013-01-17 11:33:00,27.0,23.0,28.62,NW,317,0.0,2.0,86,0.00,,,0.00,,2013-01-17 16:33:00,
2013-01-17 11:43:00,27.0,23.0,28.62,NW,317,0.0,2.0,86,0.00,,,0.00,,2013-01-17 16:43:00,
2013-01-17 11:53:00,27.0,23.0,28.62,NW,318,1.0,2.0,86,0.00,,,0.00,,2013-01-17 16:53:00,
2013-01-17 12:02:00,27.0,23.0,28.62,NW,314,0.0,2.0,86,0.00,,,0.00,,2013-01-17 17:02:00,
2013-01-17 12:12:00,27.0,23.0,28.62,NW,314,0.0,2.0,86,0.00,,,0.00,,2013-01-17 17:12:00,
2013-01-17 12:22:00,27.0,23.0,28.62,WNW,302,0.0,1.0,86,0.00,,,0.00,,2013-01-17 17:22:00,
2013-01-17 12:33:00,27.0,23.0,28.62,WNW,302,0.0,1.0,86,0.00,,,0.00,,2013-01-17 17:33:00,
2013-01-17 12:43:00,27.0,23.0,28.62,WNW,302,0.0,1.0,86,0.00,,,0.00,,2013-01-17 17:43:00,
2013-01-17 12:53:00,27.0,23.0,28.63,WNW,297,1.0,3.0,85,0.00,,,0.00,,2013-01-17 17:53:00,
2013-01-17 13:03:00,27.0,23.0,28.63,WNW,295,0.0,2.0,85,0.00,,,0.00,,2013-01-17 18:03:00,
2013-01-17 13:12:00,27.0,23.0,28.63,WNW,295,0.0,2.0,85,0.00,,,0.00,,2013-01-17 18:12:00,
2013-01-17 13:22:00,28.0,24.0,28.63,NW,321,2.0,4.0,85,0.00,,,0.00,,2013-01-17 18:22:00,
2013-01-17 13:33:00,28.0,24.0,28.63,NW,310,1.0,3.0,85,0.00,,,0.00,,2013-01-17 18:33:00,
2013-01-17 13:43:00,28.0,24.0,28.63,NW,310,1.0,3.0,85,0.00,,,0.00,,2013-01-17 18:43:00,
2013-01-17 13:52:00,28.0,24.0,28.62,West,277,0.0,3.0,85,0.00,,,0.00,,2013-01-17 18:52:00,
2013-01-17 14:03:00,28.0,24.0,28.61,WNW,297,0.0,5.0,85,0.00,,,0.00,,2013-01-17 19:03:00,
2013-01-17 14:12:00,28.0,24.0,28.61,WNW,297,0.0,5.0,85,0.00,,,0.00,,2013-01-17 19:12:00,
2013-01-17 14:22:00,28.0,24.0,28.60,WNW,295,0.0,3.0,84,0.00,,,0.00,,2013-01-17 19:22:00,
2013-01-17 14:32:00,28.0,24.0,28.60,NW,318,3.0,5.0,85,0.00,,,0.00,,2013-01-17 19:32:00,
2013-01-17 14:42:00,28.0,24.0,28.60,NW,318,3.0,5.0,85,0.00,,,0.00,,2013-01-17 19:42:00,
2013-01-17 14:53:00,28.0,24.0,28.59,WNW,285,1.0,3.0,86,0.00,,,0.00,,2013-01-17 19:53:00,
2013-01-17 15:02:00,28.0,24.0,28.58,NNW,338,0.0,3.0,85,0.00,,,0.00,,2013-01-17 20:02:00,
2013-01-17 15:12:00,28.0,24.0,28.58,NNW,338,0.0,3.0,85,0.00,,,0.00,,2013-01-17 20:12:00,
2013-01-17 15:22:00,27.0,23.0,28.58,NNW,327,1.0,4.0,86,0.00,,,0.00,,2013-01-17 20:22:00,
2013-01-17 15:33:00,28.0,24.0,28.57,NNW,330,0.0,1.0,86,0.00,,,0.00,,2013-01-17 20:33:00,
2013-01-17 15:43:00,28.0,24.0,28.57,NNW,330,0.0,1.0,86,0.00,,,0.00,,2013-01-17 20:43:00,
2013-01-17 15:53:00,28.0,24.0,28.56,NW,316,2.0,3.0,85,0.00,,,0.00,,2013-01-17 20:53:00,
2013-01-17 16:02:00,28.0,24.0,28.55,NW,323,0.0,1.0,85,0.00,,,0.00,,2013-01-17 21:02:00,
2013-01-17 16:12:00,28.0,24.0,28.55,NW,323,0.0,1.0,85,0.00,,,0.00,,2013-01-17 21:12:00,
2013-01-17 16:22:00,28.0,24.0,28.55,NE,39,0.0,1.0,84,0.00,,,0.00,,2013-01-17 21:22:00,
2013-01-17 16:33:00,29.0,25.0,28.54,NNE,12,0.0,2.0,83,0.00,,,0.00,,2013-01-17 21:33:00,
2013-01-17 16:42:00,29.0,25.0,28.54,NNE,12,0.0,2.0,83,0.00,,,0.00,,2013-01-17 21:42:00,
2013-01-17 16:52:00,29.0,25.0,28.53,East,94,0.0,2.0,83,0.00,,,0.00,,2013-01-17 21:52:00,
2013-01-17 17:03:00,29.0,25.0,28.53,ENE,77,0.0,2.0,83,0.00,,,0.00,,2013-01-17 22:03:00,
2013-01-17 17:12:00,29.0,25.0,28.53,ENE,77,0.0,2.0,83,0.00,,,0.00,,2013-01-17 22:12:00,
2013-01-17 17:22:00,29.0,25.0,28.52,NW,304,0.0,2.0,83,0.00,,,0.00,,2013-01-17 22:22:00,
2013-01-17 17:33:00,29.0,24.0,28.52,NE,37,0.0,1.0,82,0.00,,,0.00,,2013-01-17 22:33:00,
2013-01-17 17:42:00,29.0,24.0,28.52,NE,37,0.0,1.0,82,0.00,,,0.00,,2013-01-17 22:42:00,
2013-01-17 17:52:00,29.0,24.0,28.52,East,91,0.0,1.0,82,0.00,,,0.00,,2013-01-17 22:52:00,
2013-01-17 18:02:00,29.0,24.0,28.52,East,97,0.0,1.0,82,0.00,,,0.00,,2013-01-17 23:02:00,
2013-01-17 18:12:00,29.0,24.0,28.52,East,97,0.0,1.0,82,0.00,,,0.00,,2013-01-17 23:12:00,
2013-01-17 18:22:00,29.0,24.0,28.52,East,97,0.0,2.0,82,0.00,,,0.00,,2013-01-17 23:22:00,
2013-01-17 18:32:00,29.0,25.0,28.52,ESE,103,0.0,1.0,83,0.00,,,0.00,,2013-01-17 23:32:00,
2013-01-17 18:42:00,29.0,25.0,28.52,ESE,103,0.0,1.0,83,0.00,,,0.00,,2013-01-17 23:42:00,
2013-01-17 18:52:00,29.0,25.0,28.51,ESE,103,0.0,1.0,83,0.00,,,0.00,,2013-01-17 23:52:00,
2013-01-17 19:02:00,29.0,25.0,28.51,East,82,0.0,1.0,83,0.00,,,0.00,,2013-01-18 00:02:00,
2013-01-17 19:12:00,29.0,25.0,28.51,East,82,0.0,1.0,83,0.00,,,0.00,,2013-01-18 00:12:00,
2013-01-17 19:22:00,29.0,25.0,28.51,East,82,0.0,0.0,83,0.00,,,0.00,,2013-01-18 00:22:00,
2013-01-17 19:32:00,29.0,25.0,28.51,East,82,0.0,0.0,83,0.00,,,0.00,,2013-01-18 00:32:00,
2013-01-17 19:42:00,29.0,25.0,28.51,East,85,0.0,1.0,83,0.00,,,0.00,,2013-01-18 00:42:00,
2013-01-17 19:52:00,28.0,24.0,28.51,NW,316,0.0,1.0,84,0.00,,,0.00,,2013-01-18 00:52:00,
2013-01-17 20:02:00,28.0,24.0,28.51,NW,305,0.0,1.0,84,0.00,,,0.00,,2013-01-18 01:02:00,
2013-01-17 20:12:00,28.0,24.0,28.51,NW,305,0.0,1.0,84,0.00,,,0.00,,2013-01-18 01:12:00,
2013-01-17 20:22:00,28.0,24.0,28.51,WNW,290,0.0,2.0,84,0.00,,,0.00,,2013-01-18 01:22:00,
2013-01-17 20:32:00,28.0,24.0,28.52,WNW,300,1.0,2.0,85,0.00,,,0.00,,2013-01-18 01:32:00,
2013-01-17 20:42:00,28.0,24.0,28.52,WNW,300,1.0,2.0,85,0.00,,,0.00,,2013-01-18 01:42:00,
2013-01-17 20:52:00,28.0,24.0,28.52,West,263,0.0,2.0,85,0.00,,,0.00,,2013-01-18 01:52:00,
2013-01-17 21:02:00,28.0,24.0,28.52,WNW,285,1.0,2.0,85,0.00,,,0.00,,2013-01-18 02:02:00,
2013-01-17 21:12:00,28.0,24.0,28.52,WNW,285,1.0,2.0,85,0.00,,,0.00,,2013-01-18 02:12:00,
2013-01-17 21:22:00,28.0,24.0,28.51,West,276,0.0,3.0,85,0.00,,,0.00,,2013-01-18 02:22:00,
2013-01-17 21:32:00,28.0,24.0,28.51,NW,305,0.0,3.0,85,0.00,,,0.00,,2013-01-18 02:32:00,
2013-01-17 21:42:00,28.0,24.0,28.51,NW,305,0.0,3.0,85,0.00,,,0.00,,2013-01-18 02:42:00,
2013-01-17 21:52:00,28.0,24.0,28.51,NW,317,1.0,3.0,85,0.00,,,0.00,,2013-01-18 02:52:00,
2013-01-17 22:02:00,28.0,24.0,28.51,NW,317,1.0,3.0,85,0.00,,,0.00,,2013-01-18 03:02:00,
2013-01-17 22:12:00,28.0,24.0,28.51,NW,317,1.0,3.0,85,0.00,,,0.00,,2013-01-18 03:12:00,
2013-01-17 22:22:00,28.0,24.0,28.51,WNW,301,1.0,4.0,85,0.00,,,0.00,,2013-01-18 03:22:00,
2013-01-17 22:33:00,28.0,24.0,28.51,WNW,301,1.0,4.0,85,0.00,,,0.00,,2013-01-18 03:33:00,
2013-01-17 22:42:00,28.0,24.0,28.51,WNW,301,1.0,4.0,85,0.00,,,0.00,,2013-01-18 03:42:00,
2013-01-17 22:52:00,28.0,24.0,28.50,West,262,0.0,2.0,85,0.00,,,0.00,,2013-01-18 03:52:00,
2013-01-17 23:02:00,28.0,24.0,28.50,WNW,302,3.0,6.0,85,0.00,,,0.00,,2013-01-18 04:02:00,
2013-01-17 23:12:00,28.0,24.0,28.50,WNW,302,3.0,6.0,85,0.00,,,0.00,,2013-01-18 04:12:00,
2013-01-17 23:22:00,28.0,24.0,28.49,WNW,300,2.0,5.0,85,0.00,,,0.00,,2013-01-18 04:22:00,
2013-01-17 23:32:00,28.0,24.0,28.48,WNW,298,3.0,6.0,85,0.00,,,0.00,,2013-01-18 04:32:00,
2013-01-17 23:42:00,28.0,24.0,28.48,WNW,298,3.0,6.0,85,0.00,,,0.00,,2013-01-18 04:42:00,
2013-01-17 23:52:00,28.0,24.0,28.48,NW,309,2.0,6.0,85,0.00,,,0.00,,2013-01-18 04:52:00,